createdAt,value
2023-03-19T00:00:45.328Z,11.80
2023-03-19T00:03:12.159Z,11.80
2023-03-19T00:05:39.170Z,11.80
2023-03-19T00:08:06.531Z,11.70
2023-03-19T00:10:33.993Z,11.70
2023-03-19T00:13:01.026Z,11.70
2023-03-19T00:15:28.169Z,11.60
2023-03-19T00:17:56.656Z,11.60
2023-03-19T00:20:24.510Z,11.70
2023-03-19T00:22:51.520Z,11.60
2023-03-19T00:25:18.565Z,11.60
2023-03-19T00:27:45.502Z,11.60
2023-03-19T00:30:13.077Z,11.60
2023-03-19T00:32:40.684Z,11.50
2023-03-19T00:35:08.775Z,11.50
2023-03-19T00:37:36.674Z,11.50
2023-03-19T00:40:04.561Z,11.50
2023-03-19T00:42:32.500Z,11.40
2023-03-19T00:45:06.746Z,11.40
2023-03-19T00:47:33.912Z,11.40
2023-03-19T00:50:01.009Z,11.50
2023-03-19T00:52:27.862Z,11.40
2023-03-19T00:54:54.851Z,11.40
2023-03-19T00:57:22.320Z,11.30
2023-03-19T00:59:49.348Z,11.20
2023-03-19T01:02:16.183Z,11.20
2023-03-19T01:04:43.826Z,11.20
2023-03-19T01:07:11.421Z,11.10
2023-03-19T01:09:38.559Z,11.10
2023-03-19T01:12:05.945Z,11.00
2023-03-19T01:14:33.032Z,11.00
2023-03-19T01:17:00.153Z,11.00
2023-03-19T01:19:27.492Z,10.90
2023-03-19T01:21:54.641Z,10.90
2023-03-19T01:24:22.118Z,10.90
2023-03-19T01:26:49.211Z,10.90
2023-03-19T01:29:16.373Z,10.90
2023-03-19T01:31:43.198Z,10.90
2023-03-19T01:34:10.326Z,10.70
2023-03-19T01:36:37.488Z,10.70
2023-03-19T01:39:04.663Z,10.60
2023-03-19T01:41:32.115Z,10.50
2023-03-19T01:43:59.323Z,10.40
2023-03-19T01:46:32.387Z,10.40
2023-03-19T01:49:02.770Z,10.30
2023-03-19T01:51:35.642Z,10.20
2023-03-19T01:54:14.502Z,10.20
2023-03-19T01:56:43.394Z,10.10
2023-03-19T01:59:30.086Z,10.10
2023-03-19T02:02:02.285Z,10.10
2023-03-19T02:04:31.777Z,10.10
2023-03-19T02:07:00.809Z,10.00
2023-03-19T02:09:29.392Z,10.00
2023-03-19T02:11:57.235Z,10.00
2023-03-19T02:14:24.352Z,10.00
2023-03-19T02:16:51.620Z,10.00
2023-03-19T02:19:28.178Z,9.90
2023-03-19T02:21:57.105Z,10.00
2023-03-19T02:24:32.785Z,9.90
2023-03-19T02:27:00.000Z,10.00
2023-03-19T02:29:27.162Z,10.00
2023-03-19T02:31:54.088Z,10.00
2023-03-19T02:34:21.428Z,10.00
2023-03-19T02:36:52.110Z,10.00
2023-03-19T02:39:42.828Z,10.00
2023-03-19T02:42:11.572Z,10.00
2023-03-19T02:44:38.555Z,10.10
2023-03-19T02:47:05.970Z,10.20
2023-03-19T02:49:33.199Z,10.30
2023-03-19T02:52:00.794Z,10.40
2023-03-19T02:54:27.767Z,10.70
2023-03-19T02:56:55.051Z,10.70
2023-03-19T02:59:22.093Z,10.70
2023-03-19T03:01:49.406Z,10.80
2023-03-19T03:04:17.165Z,10.80
2023-03-19T03:06:44.956Z,10.80
2023-03-19T03:09:13.836Z,10.80
2023-03-19T03:11:44.002Z,10.80
2023-03-19T03:14:12.032Z,10.80
2023-03-19T03:16:39.010Z,10.80
2023-03-19T03:19:06.689Z,11.00
2023-03-19T03:21:35.590Z,11.20
2023-03-19T03:24:03.012Z,11.20
2023-03-19T03:26:29.977Z,11.20
2023-03-19T03:28:56.866Z,11.30
2023-03-19T03:31:23.839Z,11.30
2023-03-19T03:33:50.961Z,11.30
2023-03-19T03:36:18.111Z,11.30
2023-03-19T03:38:46.128Z,11.20
2023-03-19T03:41:13.069Z,11.30
2023-03-19T03:43:41.194Z,11.30
2023-03-19T03:46:08.809Z,11.20
2023-03-19T03:48:36.133Z,11.20
2023-03-19T03:51:04.521Z,11.20
2023-03-19T03:53:31.908Z,11.20
2023-03-19T03:55:59.439Z,11.30
2023-03-19T03:58:26.807Z,11.20
2023-03-19T04:00:54.726Z,11.20
2023-03-19T04:03:22.553Z,11.20
2023-03-19T04:05:49.884Z,11.10
2023-03-19T04:08:17.264Z,11.10
2023-03-19T04:10:44.900Z,11.20
2023-03-19T04:13:13.207Z,11.20
2023-03-19T04:15:45.798Z,11.10
2023-03-19T04:18:12.960Z,11.10
2023-03-19T04:20:41.364Z,11.00
2023-03-19T04:23:08.337Z,11.00
2023-03-19T04:25:35.492Z,11.00
2023-03-19T04:28:02.386Z,10.90
2023-03-19T04:30:29.328Z,10.90
2023-03-19T04:32:57.192Z,10.90
2023-03-19T04:35:24.487Z,10.80
2023-03-19T04:37:51.827Z,10.80
2023-03-19T04:40:19.413Z,10.80
2023-03-19T04:42:46.388Z,10.90
2023-03-19T04:45:13.841Z,10.80
2023-03-19T04:47:40.869Z,10.90
2023-03-19T04:50:09.470Z,10.80
2023-03-19T04:52:37.443Z,10.70
2023-03-19T04:55:05.998Z,10.70
2023-03-19T04:57:33.220Z,10.60
2023-03-19T05:00:00.242Z,10.60
2023-03-19T05:02:27.754Z,10.60
2023-03-19T05:04:54.610Z,10.50
2023-03-19T05:07:21.591Z,10.50
2023-03-19T05:09:48.529Z,10.40
2023-03-19T05:12:15.321Z,10.30
2023-03-19T05:14:42.523Z,10.40
2023-03-19T05:17:11.495Z,10.30
2023-03-19T05:19:39.564Z,10.30
2023-03-19T05:22:06.500Z,10.30
2023-03-19T05:24:33.681Z,10.30
2023-03-19T05:27:00.575Z,10.30
2023-03-19T05:29:28.245Z,10.20
2023-03-19T05:31:55.091Z,10.30
2023-03-19T05:34:22.342Z,10.30
2023-03-19T05:36:50.136Z,10.30
2023-03-19T05:39:17.327Z,10.30
2023-03-19T05:41:44.176Z,10.20
2023-03-19T05:44:11.335Z,10.20
2023-03-19T05:46:38.326Z,10.30
2023-03-19T05:49:06.737Z,10.30
2023-03-19T05:51:33.941Z,10.40
2023-03-19T05:54:00.919Z,10.40
2023-03-19T05:56:27.908Z,10.50
2023-03-19T05:58:54.809Z,10.50
2023-03-19T06:01:22.724Z,10.50
2023-03-19T06:03:49.705Z,10.50
2023-03-19T06:06:16.812Z,10.50
2023-03-19T06:08:43.868Z,10.50
2023-03-19T06:11:12.471Z,10.50
2023-03-19T06:13:39.722Z,10.60
2023-03-19T06:16:07.159Z,10.90
2023-03-19T06:18:34.134Z,10.70
2023-03-19T06:21:02.317Z,10.70
2023-03-19T06:23:29.177Z,10.70
2023-03-19T06:25:56.302Z,10.70
2023-03-19T06:28:23.550Z,10.70
2023-03-19T06:30:51.238Z,10.60
2023-03-19T06:33:18.053Z,10.50
2023-03-19T06:35:44.940Z,10.70
2023-03-19T06:38:12.547Z,10.70
2023-03-19T06:40:39.725Z,10.80
2023-03-19T06:43:07.257Z,10.80
2023-03-19T06:45:34.124Z,10.80
2023-03-19T06:48:00.999Z,10.80
2023-03-19T06:50:28.286Z,10.90
2023-03-19T06:52:55.214Z,10.90
2023-03-19T06:55:22.005Z,11.00
2023-03-19T06:57:51.161Z,11.10
2023-03-19T07:00:18.740Z,11.30
2023-03-19T07:02:45.776Z,11.40
2023-03-19T07:05:12.562Z,11.40
2023-03-19T07:07:39.575Z,11.40
2023-03-19T07:10:07.607Z,11.40
2023-03-19T07:12:34.961Z,11.50
2023-03-19T07:15:02.339Z,11.50
2023-03-19T07:17:29.259Z,11.50
2023-03-19T07:19:56.262Z,11.50
2023-03-19T07:22:23.351Z,11.50
2023-03-19T07:24:51.613Z,11.60
2023-03-19T07:27:18.498Z,11.60
2023-03-19T07:29:45.335Z,11.60
2023-03-19T07:32:13.008Z,11.70
2023-03-19T07:34:39.943Z,11.80
2023-03-19T07:37:06.838Z,11.70
2023-03-19T07:39:34.208Z,11.70
2023-03-19T07:42:02.139Z,11.60
2023-03-19T07:44:28.937Z,11.70
2023-03-19T07:46:55.781Z,11.80
2023-03-19T07:49:23.637Z,11.90
2023-03-19T07:51:50.526Z,12.00
2023-03-19T07:54:17.703Z,11.90
2023-03-19T07:56:44.640Z,11.90
2023-03-19T07:59:11.686Z,11.90
2023-03-19T08:01:38.890Z,11.90
2023-03-19T08:04:06.101Z,12.00
2023-03-19T08:06:32.961Z,12.00
2023-03-19T08:08:59.746Z,12.20
2023-03-19T08:11:26.950Z,12.20
2023-03-19T08:13:54.083Z,12.10
2023-03-19T08:16:21.451Z,12.20
2023-03-19T08:18:52.647Z,12.20
2023-03-19T08:21:19.552Z,12.20
2023-03-19T08:23:46.792Z,12.20
2023-03-19T08:26:15.039Z,12.30
2023-03-19T08:28:42.075Z,12.40
2023-03-19T08:31:14.375Z,12.40
2023-03-19T08:33:41.903Z,12.40
2023-03-19T08:36:12.238Z,12.50
2023-03-19T08:38:39.592Z,12.70
2023-03-19T08:41:07.470Z,13.00
2023-03-19T08:43:36.759Z,12.80
2023-03-19T08:46:05.112Z,12.70
2023-03-19T08:48:32.221Z,12.60
2023-03-19T08:51:02.589Z,12.70
2023-03-19T08:53:30.587Z,12.70
2023-03-19T08:56:00.845Z,12.70
2023-03-19T08:58:28.716Z,12.60
2023-03-19T09:01:12.205Z,12.50
2023-03-19T09:03:41.130Z,12.60
2023-03-19T09:06:11.629Z,12.70
2023-03-19T09:08:38.860Z,12.60
2023-03-19T09:11:06.896Z,12.60
2023-03-19T09:13:34.042Z,12.60
2023-03-19T09:16:01.549Z,12.60
2023-03-19T09:18:28.939Z,12.40
2023-03-19T09:20:55.812Z,12.40
2023-03-19T09:23:23.311Z,12.20
2023-03-19T09:25:51.502Z,12.40
2023-03-19T09:28:20.948Z,12.40
2023-03-19T09:30:49.651Z,12.50
2023-03-19T09:33:18.411Z,12.30
2023-03-19T09:35:50.481Z,12.30
2023-03-19T09:38:17.462Z,12.30
2023-03-19T09:40:48.584Z,12.40
2023-03-19T09:43:32.155Z,12.50
2023-03-19T09:46:02.253Z,12.60
2023-03-19T09:48:52.933Z,12.70
2023-03-19T09:51:29.006Z,12.60
2023-03-19T09:54:06.787Z,12.50
2023-03-19T09:56:34.312Z,12.50
2023-03-19T09:59:03.329Z,12.60
2023-03-19T10:01:35.700Z,12.80
2023-03-19T10:04:30.167Z,12.90
2023-03-19T10:07:25.622Z,12.90
2023-03-19T10:10:04.360Z,12.90
2023-03-19T10:12:37.453Z,12.90
2023-03-19T10:15:30.120Z,13.10
2023-03-19T10:18:21.044Z,13.40
2023-03-19T10:21:16.310Z,13.50
2023-03-19T10:23:53.868Z,13.20
2023-03-19T10:26:26.554Z,13.80
2023-03-19T10:29:14.382Z,13.90
2023-03-19T10:31:50.177Z,14.00
2023-03-19T10:34:33.055Z,13.60
2023-03-19T10:37:13.745Z,13.60
2023-03-19T10:39:43.463Z,13.90
2023-03-19T10:42:41.396Z,14.10
2023-03-19T10:45:29.595Z,14.20
2023-03-19T10:47:58.502Z,14.10
2023-03-19T10:51:13.888Z,13.90
2023-03-19T10:53:41.602Z,13.60
2023-03-19T10:56:19.214Z,13.40
2023-03-19T10:59:02.416Z,13.20
2023-03-19T11:01:40.049Z,13.00
2023-03-19T11:04:22.098Z,12.90
2023-03-19T11:06:54.752Z,13.10
2023-03-19T11:09:58.037Z,13.40
2023-03-19T11:12:30.394Z,13.70
2023-03-19T11:14:59.676Z,14.00
2023-03-19T11:17:40.539Z,14.30
2023-03-19T11:20:37.744Z,14.60
2023-03-19T11:23:16.097Z,14.20
2023-03-19T11:25:50.845Z,13.90
2023-03-19T11:28:23.109Z,14.10
2023-03-19T11:31:01.223Z,13.80
2023-03-19T11:33:30.685Z,13.80
2023-03-19T11:36:23.939Z,14.10
2023-03-19T11:39:16.495Z,14.20
2023-03-19T11:42:08.897Z,14.00
2023-03-19T11:44:59.041Z,14.00
2023-03-19T11:47:30.807Z,14.10
2023-03-19T11:50:18.210Z,14.50
2023-03-19T11:53:00.500Z,14.90
2023-03-19T11:55:55.289Z,14.90
2023-03-19T11:58:40.965Z,15.10
2023-03-19T12:01:29.521Z,14.80
2023-03-19T12:04:20.185Z,15.10
2023-03-19T12:06:55.939Z,15.50
2023-03-19T12:09:38.654Z,15.40
2023-03-19T12:12:38.264Z,15.10
2023-03-19T12:15:13.960Z,14.80
2023-03-19T12:18:06.045Z,14.50
2023-03-19T12:21:01.014Z,14.70
2023-03-19T12:23:28.223Z,15.10
2023-03-19T12:26:04.959Z,15.20
2023-03-19T12:28:47.132Z,14.90
2023-03-19T12:31:31.871Z,14.80
2023-03-19T12:34:17.938Z,14.90
2023-03-19T12:37:11.170Z,14.90
2023-03-19T12:39:43.977Z,15.10
2023-03-19T12:42:14.533Z,15.10
2023-03-19T12:44:46.669Z,15.40
2023-03-19T12:47:31.768Z,15.60
2023-03-19T12:50:06.898Z,15.90
2023-03-19T12:52:34.108Z,15.90
2023-03-19T12:55:14.489Z,15.90
2023-03-19T12:58:03.911Z,15.30
2023-03-19T13:00:41.123Z,15.60
2023-03-19T13:03:25.378Z,15.00
2023-03-19T13:06:37.378Z,15.20
2023-03-19T13:09:24.236Z,15.30
2023-03-19T13:12:10.824Z,15.30
2023-03-19T13:14:52.683Z,15.20
2023-03-19T13:17:21.412Z,15.00
2023-03-19T13:19:56.346Z,14.90
2023-03-19T13:22:33.182Z,14.90
2023-03-19T13:25:01.658Z,14.70
2023-03-19T13:27:34.414Z,14.70
2023-03-19T13:30:10.581Z,14.40
2023-03-19T13:32:49.319Z,14.40
2023-03-19T13:35:28.497Z,14.20
2023-03-19T13:38:00.951Z,14.10
2023-03-19T13:40:59.686Z,14.00
2023-03-19T13:43:28.601Z,13.80
2023-03-19T13:46:12.319Z,13.90
2023-03-19T13:48:49.899Z,13.80
2023-03-19T13:51:19.711Z,13.80
2023-03-19T13:54:05.217Z,13.90
2023-03-19T13:56:53.335Z,13.90
2023-03-19T13:59:28.082Z,13.80
2023-03-19T14:01:55.831Z,13.80
2023-03-19T14:04:38.202Z,14.00
2023-03-19T14:07:11.354Z,15.00
2023-03-19T14:10:12.684Z,16.20
2023-03-19T14:12:42.811Z,17.10
2023-03-19T14:15:10.349Z,18.50
2023-03-19T14:17:42.556Z,18.40
2023-03-19T14:20:16.693Z,18.80
2023-03-19T14:23:09.257Z,19.20
2023-03-19T14:25:54.108Z,20.10
2023-03-19T14:28:28.396Z,21.00
2023-03-19T14:30:57.115Z,20.80
2023-03-19T14:33:32.693Z,21.10
2023-03-19T14:36:04.660Z,21.70
2023-03-19T14:38:40.839Z,22.50
2023-03-19T14:41:12.526Z,22.90
2023-03-19T14:44:04.710Z,23.20
2023-03-19T14:46:31.850Z,23.00
2023-03-19T14:49:29.785Z,22.70
2023-03-19T14:52:17.993Z,22.70
2023-03-19T14:55:12.268Z,23.30
2023-03-19T14:57:39.272Z,22.50
2023-03-19T15:00:13.523Z,22.70
2023-03-19T15:02:52.628Z,23.30
2023-03-19T15:05:30.001Z,22.60
2023-03-19T15:08:06.963Z,22.00
2023-03-19T15:11:02.906Z,21.30
2023-03-19T15:13:51.418Z,20.00
2023-03-19T15:16:46.588Z,19.10
2023-03-19T15:19:15.789Z,18.40
2023-03-19T15:21:43.254Z,17.70
2023-03-19T15:24:17.740Z,17.30
2023-03-19T15:26:46.072Z,17.00
2023-03-19T15:29:13.680Z,16.80
2023-03-19T15:31:54.776Z,16.50
2023-03-19T15:34:29.822Z,16.40
2023-03-19T15:37:08.746Z,16.10
2023-03-19T15:39:45.297Z,15.70
2023-03-19T15:42:14.648Z,15.70
2023-03-19T15:44:49.641Z,15.60
2023-03-19T15:47:22.104Z,15.40
2023-03-19T15:50:07.238Z,15.40
2023-03-19T15:52:38.971Z,15.40
2023-03-19T15:55:07.334Z,15.40
2023-03-19T15:57:39.906Z,15.20
2023-03-19T16:00:13.415Z,15.20
2023-03-19T16:02:42.353Z,14.70
2023-03-19T16:05:27.520Z,14.50
2023-03-19T16:08:03.167Z,14.30
2023-03-19T16:10:42.416Z,14.00
2023-03-19T16:13:27.478Z,13.60
2023-03-19T16:16:02.787Z,13.70
2023-03-19T16:18:41.707Z,13.70
2023-03-19T16:21:15.556Z,13.70
2023-03-19T16:24:19.129Z,13.60
2023-03-19T16:26:48.036Z,13.50
2023-03-19T16:29:19.748Z,13.40
2023-03-19T16:31:52.297Z,13.30
2023-03-19T16:34:32.214Z,13.30
2023-03-19T16:37:00.429Z,13.20
2023-03-19T16:39:36.693Z,13.10
2023-03-19T16:42:27.651Z,13.00
2023-03-19T16:44:54.927Z,13.00
2023-03-19T16:47:22.691Z,13.00
2023-03-19T16:49:49.596Z,12.90
2023-03-19T16:52:22.741Z,12.80
2023-03-19T16:54:50.354Z,12.80
2023-03-19T16:57:17.556Z,12.70
2023-03-19T16:59:46.815Z,12.60
2023-03-19T17:02:19.983Z,12.60
2023-03-19T17:04:47.358Z,12.80
2023-03-19T17:07:14.544Z,12.80
2023-03-19T17:09:41.389Z,12.70
2023-03-19T17:12:14.894Z,12.70
2023-03-19T17:14:42.478Z,12.70
2023-03-19T17:17:19.557Z,12.50
2023-03-19T17:19:48.264Z,12.40
2023-03-19T17:22:15.229Z,12.30
2023-03-19T17:24:42.840Z,12.30
2023-03-19T17:27:10.765Z,12.30
2023-03-19T17:29:37.788Z,12.30
2023-03-19T17:32:07.170Z,12.40
2023-03-19T17:34:35.846Z,12.40
2023-03-19T17:37:11.491Z,12.40
2023-03-19T17:39:38.342Z,12.10
2023-03-19T17:42:19.304Z,12.20
2023-03-19T17:44:46.891Z,12.10
2023-03-19T17:47:14.003Z,12.00
2023-03-19T17:49:42.288Z,12.10
2023-03-19T17:52:17.820Z,12.00
2023-03-19T17:54:45.419Z,12.00
2023-03-19T17:57:15.998Z,12.00
2023-03-19T17:59:42.891Z,12.00
2023-03-19T18:02:36.891Z,11.90
2023-03-19T18:05:04.234Z,11.90
2023-03-19T18:07:31.401Z,11.80
2023-03-19T18:09:58.220Z,11.70
2023-03-19T18:12:25.000Z,11.70
2023-03-19T18:14:51.939Z,11.70
2023-03-19T18:17:20.350Z,11.60
2023-03-19T18:19:50.790Z,11.50
2023-03-19T18:22:21.383Z,11.50
2023-03-19T18:24:48.347Z,11.50
2023-03-19T18:27:16.109Z,11.60
2023-03-19T18:29:44.198Z,11.50
2023-03-19T18:32:19.530Z,11.50
2023-03-19T18:34:46.784Z,11.50
2023-03-19T18:37:18.158Z,11.50
2023-03-19T18:39:45.372Z,11.50
2023-03-19T18:42:13.809Z,11.50
2023-03-19T18:44:40.709Z,11.40
2023-03-19T18:47:13.799Z,11.40
2023-03-19T18:49:41.618Z,11.40
2023-03-19T18:52:18.978Z,11.40
2023-03-19T18:54:46.568Z,11.40
2023-03-19T18:57:14.733Z,11.40
2023-03-19T18:59:41.875Z,11.30
2023-03-19T19:02:44.001Z,11.30
2023-03-19T19:05:24.776Z,11.30
2023-03-19T19:07:52.203Z,11.40
2023-03-19T19:10:19.363Z,11.50
2023-03-19T19:12:52.477Z,11.40
2023-03-19T19:15:33.026Z,11.30
2023-03-19T19:18:00.573Z,11.30
2023-03-19T19:20:29.835Z,11.30
2023-03-19T19:22:57.012Z,11.30
2023-03-19T19:25:29.278Z,11.20
2023-03-19T19:28:02.241Z,11.20
2023-03-19T19:30:29.531Z,11.20
2023-03-19T19:32:57.399Z,11.20
2023-03-19T19:35:28.128Z,11.10
2023-03-19T19:37:55.554Z,11.10
2023-03-19T19:40:28.654Z,11.10
2023-03-19T19:42:55.449Z,11.10
2023-03-19T19:45:28.254Z,11.10
2023-03-19T19:47:56.723Z,11.10
2023-03-19T19:50:25.414Z,11.20
2023-03-19T19:52:54.296Z,11.10
2023-03-19T19:55:22.451Z,11.10
2023-03-19T19:57:49.904Z,11.10
2023-03-19T20:00:27.476Z,11.10
2023-03-19T20:02:55.222Z,11.10
2023-03-19T20:05:25.514Z,11.10
2023-03-19T20:07:55.013Z,11.10
2023-03-19T20:10:25.871Z,11.30
2023-03-19T20:12:55.875Z,11.40
2023-03-19T20:15:29.573Z,11.40
2023-03-19T20:17:57.021Z,11.40
2023-03-19T20:20:28.171Z,11.30
2023-03-19T20:22:56.809Z,11.30
2023-03-19T20:25:29.147Z,11.30
2023-03-19T20:27:59.401Z,11.20
2023-03-19T20:30:35.424Z,11.30
2023-03-19T20:33:02.655Z,11.20
2023-03-19T20:35:32.501Z,11.10
2023-03-19T20:38:00.861Z,11.20
2023-03-19T20:40:51.558Z,11.10
2023-03-19T20:43:35.678Z,11.00
2023-03-19T20:46:05.303Z,11.00
2023-03-19T20:48:33.291Z,11.00
2023-03-19T20:51:02.317Z,11.00
2023-03-19T20:53:29.444Z,11.10
2023-03-19T20:55:57.313Z,11.20
2023-03-19T20:58:37.002Z,11.20
2023-03-19T21:01:03.888Z,11.10
2023-03-19T21:03:32.203Z,11.10
2023-03-19T21:06:06.110Z,11.00
2023-03-19T21:08:44.430Z,10.90
2023-03-19T21:11:37.165Z,10.90
2023-03-19T21:14:05.132Z,11.00
2023-03-19T21:16:35.030Z,10.90
2023-03-19T21:19:02.936Z,11.10
2023-03-19T21:21:36.233Z,11.00
2023-03-19T21:24:14.255Z,11.00
2023-03-19T21:26:42.774Z,11.00
2023-03-19T21:29:41.335Z,11.00
2023-03-19T21:32:16.862Z,11.00
2023-03-19T21:34:45.610Z,11.10
2023-03-19T21:37:12.911Z,11.00
2023-03-19T21:39:41.103Z,10.90
2023-03-19T21:42:09.773Z,10.90
2023-03-19T21:44:37.332Z,10.90
2023-03-19T21:47:04.532Z,11.00
2023-03-19T21:49:31.565Z,10.90
2023-03-19T21:51:58.584Z,10.90
2023-03-19T21:54:25.465Z,10.90
2023-03-19T21:56:52.636Z,10.90
2023-03-19T21:59:31.791Z,10.80
2023-03-19T22:01:59.386Z,10.90
2023-03-19T22:04:26.518Z,10.90
2023-03-19T22:06:53.668Z,10.90
2023-03-19T22:09:20.600Z,10.80
2023-03-19T22:11:47.409Z,10.80
2023-03-19T22:14:24.791Z,10.80
2023-03-19T22:16:54.629Z,10.70
2023-03-19T22:19:22.161Z,10.60
2023-03-19T22:21:49.607Z,10.60
2023-03-19T22:24:18.046Z,10.60
2023-03-19T22:26:49.656Z,10.60
2023-03-19T22:29:20.956Z,10.50
2023-03-19T22:31:52.453Z,10.50
2023-03-19T22:34:22.574Z,10.40
2023-03-19T22:36:50.249Z,10.40
2023-03-19T22:39:17.718Z,10.30
2023-03-19T22:41:47.856Z,10.30
2023-03-19T22:44:28.105Z,10.10
2023-03-19T22:46:57.287Z,10.10
2023-03-19T22:49:25.146Z,10.10
2023-03-19T22:51:52.062Z,10.10
2023-03-19T22:54:18.914Z,9.90
2023-03-19T22:56:45.877Z,9.90
2023-03-19T22:59:14.117Z,10.00
2023-03-19T23:01:49.215Z,9.90
2023-03-19T23:04:21.109Z,9.90
2023-03-19T23:06:48.830Z,10.00
2023-03-19T23:09:25.076Z,9.80
2023-03-19T23:11:53.736Z,9.80
2023-03-19T23:14:29.598Z,9.70
2023-03-19T23:17:02.038Z,9.60
2023-03-19T23:19:36.069Z,9.70
2023-03-19T23:22:05.184Z,9.70
2023-03-19T23:24:32.502Z,9.60
2023-03-19T23:27:01.582Z,9.60
2023-03-19T23:29:34.358Z,9.60
2023-03-19T23:32:01.467Z,9.60
2023-03-19T23:34:28.818Z,9.60
2023-03-19T23:36:57.308Z,9.50
2023-03-19T23:39:24.613Z,9.50
2023-03-19T23:41:56.723Z,9.50
2023-03-19T23:44:23.639Z,9.50
2023-03-19T23:46:52.544Z,9.40
2023-03-19T23:49:29.770Z,9.40
2023-03-19T23:51:57.488Z,9.40
2023-03-19T23:54:50.923Z,9.40
2023-03-19T23:57:17.858Z,9.40
2023-03-19T23:59:48.321Z,9.30
